Time;durP1;ratioP1;P1;durP2;ratioP2;P2;SDS_P1;SDS_P2;PMS_P1;PMS_P2;Temp;Humidity;BMP_temperature;BMP_pressure;BME280_temperature;BME280_humidity;BME280_pressure;Samples;Min_cycle;Max_cycle;Signal;HPM_P1;HPM_P2
2021/09/09 00:01:42;;;;;;;17.00;13.60;;;16.10;85.60;;;;;;4935330;29;20039;-83
2021/09/09 00:04:08;;;;;;;18.33;14.18;;;16.10;84.20;;;;;;4928976;28;20129;-83
2021/09/09 00:06:38;;;;;;;17.30;14.05;;;16.10;84.80;;;;;;4935845;29;20094;-83
2021/09/09 00:09:04;;;;;;;23.88;14.77;;;16.10;85.60;;;;;;4951394;28;20027;-83
2021/09/09 00:11:31;;;;;;;17.77;13.95;;;16.10;84.40;;;;;;4927680;28;20027;-83
2021/09/09 00:13:56;;;;;;;20.58;14.25;;;16.00;84.80;;;;;;4922748;28;20102;-84
2021/09/09 00:16:22;;;;;;;18.65;13.73;;;15.90;86.10;;;;;;4923889;28;20031;-84
2021/09/09 00:18:47;;;;;;;19.45;13.60;;;15.90;85.90;;;;;;4920564;28;20043;-84
2021/09/09 00:21:13;;;;;;;20.60;13.55;;;15.80;86.40;;;;;;4927818;28;20058;-83
2021/09/09 00:23:38;;;;;;;17.75;13.95;;;15.80;87.00;;;;;;4938658;28;20035;-84
2021/09/09 00:26:04;;;;;;;19.17;15.07;;;15.80;87.80;;;;;;4941122;28;20023;-84
2021/09/09 00:28:30;;;;;;;17.92;13.98;;;15.80;87.10;;;;;;4938808;28;20038;-84
2021/09/09 00:30:56;;;;;;;20.02;14.57;;;15.80;86.60;;;;;;4960952;28;20133;-85
2021/09/09 00:33:22;;;;;;;19.35;14.05;;;15.70;89.20;;;;;;4929790;28;20495;-84
2021/09/09 00:35:47;;;;;;;19.98;14.27;;;15.60;88.40;;;;;;4925817;28;20054;-84
2021/09/09 00:38:13;;;;;;;15.93;13.10;;;15.60;87.50;;;;;;4920596;28;20058;-84
2021/09/09 00:40:38;;;;;;;18.92;13.88;;;15.50;89.00;;;;;;4929296;28;20039;-84
2021/09/09 00:43:04;;;;;;;18.55;13.63;;;15.50;88.90;;;;;;4929975;28;20031;-82
2021/09/09 00:45:30;;;;;;;21.50;14.40;;;15.40;87.80;;;;;;4940417;28;20036;-85
2021/09/09 00:47:57;;;;;;;19.83;13.63;;;15.40;89.20;;;;;;4930057;28;20431;-84
2021/09/09 00:50:22;;;;;;;17.00;14.57;;;15.50;88.90;;;;;;4927438;28;20098;-84
2021/09/09 00:52:48;;;;;;;15.95;13.18;;;15.40;88.90;;;;;;4934486;28;20127;-84
2021/09/09 00:55:14;;;;;;;17.10;14.35;;;15.30;90.50;;;;;;4932168;28;20042;-83
2021/09/09 00:57:40;;;;;;;18.13;13.73;;;15.40;90.50;;;;;;4919181;29;20032;-85
2021/09/09 01:00:06;;;;;;;21.30;15.45;;;15.40;90.60;;;;;;4938177;28;20502;-84
2021/09/09 01:02:32;;;;;;;20.27;14.23;;;15.40;90.60;;;;;;4924455;29;20495;-84
2021/09/09 01:04:57;;;;;;;19.25;14.52;;;15.40;90.40;;;;;;4923996;28;20051;-84
2021/09/09 01:07:24;;;;;;;18.90;13.82;;;15.40;89.80;;;;;;4935018;28;20029;-84
2021/09/09 01:09:49;;;;;;;17.80;14.07;;;15.30;90.20;;;;;;4944177;28;20125;-84
2021/09/09 01:12:15;;;;;;;18.63;14.55;;;15.30;91.10;;;;;;4940251;28;20186;-84
2021/09/09 01:14:40;;;;;;;23.92;15.63;;;15.30;90.30;;;;;;4942210;28;20146;-83
2021/09/09 01:17:06;;;;;;;20.73;15.23;;;15.20;90.50;;;;;;4929655;28;20031;-84
2021/09/09 01:19:32;;;;;;;21.95;14.55;;;15.20;89.60;;;;;;4941115;28;20550;-84
2021/09/09 01:21:58;;;;;;;21.63;16.38;;;15.20;90.70;;;;;;4939696;28;20175;-84
2021/09/09 01:24:23;;;;;;;20.63;14.20;;;15.10;90.50;;;;;;4930485;28;20396;-85
2021/09/09 01:26:53;;;;;;;19.50;14.55;;;15.00;90.90;;;;;;4925548;28;20099;-85
2021/09/09 01:29:23;;;;;;;19.23;15.23;;;14.90;91.30;;;;;;4940210;28;20034;-85
2021/09/09 01:31:48;;;;;;;17.70;13.70;;;14.90;91.30;;;;;;4937864;28;20551;-85
2021/09/09 01:34:14;;;;;;;18.58;14.82;;;14.90;91.40;;;;;;4954490;28;20121;-83
2021/09/09 01:36:40;;;;;;;19.05;14.32;;;14.80;92.20;;;;;;4931028;29;20035;-84
2021/09/09 01:39:05;;;;;;;21.67;14.18;;;14.80;92.70;;;;;;4944314;28;20047;-82
2021/09/09 01:41:31;;;;;;;22.30;14.80;;;14.80;92.30;;;;;;4931278;28;20031;-83
2021/09/09 01:43:56;;;;;;;24.60;14.23;;;14.80;93.00;;;;;;4937375;28;20039;-85
2021/09/09 01:46:22;;;;;;;20.15;14.43;;;14.70;92.60;;;;;;4931814;28;20542;-85
2021/09/09 01:48:47;;;;;;;20.65;15.65;;;14.80;93.10;;;;;;4938805;28;20491;-85
2021/09/09 01:51:13;;;;;;;19.52;14.98;;;14.80;93.50;;;;;;4931318;28;20023;-85
2021/09/09 01:53:38;;;;;;;18.77;14.90;;;14.80;92.50;;;;;;4932335;28;20031;-85
2021/09/09 01:56:04;;;;;;;19.05;14.00;;;14.70;93.00;;;;;;4933324;28;20513;-84
2021/09/09 01:58:29;;;;;;;20.08;14.43;;;14.70;93.00;;;;;;4928800;29;20643;-84
2021/09/09 02:00:57;;;;;;;20.52;14.75;;;14.70;93.80;;;;;;4933136;28;20841;-85
2021/09/09 02:03:24;;;;;;;23.58;14.88;;;14.70;92.90;;;;;;4928603;28;20389;-85
2021/09/09 02:05:49;;;;;;;17.48;14.30;;;14.70;93.50;;;;;;4931805;28;20031;-84
2021/09/09 02:08:15;;;;;;;17.95;14.65;;;14.50;93.50;;;;;;4928246;28;20046;-85
2021/09/09 02:10:40;;;;;;;17.50;15.40;;;14.50;93.80;;;;;;4930032;28;20057;-83
2021/09/09 02:13:06;;;;;;;18.92;14.40;;;14.60;94.40;;;;;;4923099;28;20028;-84
2021/09/09 02:15:32;;;;;;;19.02;14.48;;;14.60;95.70;;;;;;4923715;29;20048;-85
2021/09/09 02:17:57;;;;;;;18.90;14.00;;;14.70;95.90;;;;;;4948132;28;20042;-84
2021/09/09 02:20:23;;;;;;;20.33;14.48;;;14.80;93.60;;;;;;4932590;28;20061;-84
2021/09/09 02:22:48;;;;;;;19.02;15.38;;;14.70;92.80;;;;;;4933252;28;20043;-85
2021/09/09 02:25:14;;;;;;;19.90;14.77;;;14.60;93.10;;;;;;4930504;28;20087;-85
2021/09/09 02:27:39;;;;;;;17.52;14.98;;;14.60;93.60;;;;;;4929744;28;20086;-84
2021/09/09 02:30:05;;;;;;;20.70;15.18;;;14.50;93.70;;;;;;4943838;28;20098;-83
2021/09/09 02:32:31;;;;;;;20.13;15.38;;;14.30;94.20;;;;;;4926948;29;20141;-85
2021/09/09 02:34:56;;;;;;;21.38;14.55;;;14.50;96.20;;;;;;4937591;28;20065;-85
2021/09/09 02:37:22;;;;;;;18.45;14.27;;;14.50;95.00;;;;;;4928126;28;20030;-85
2021/09/09 02:39:48;;;;;;;19.88;14.80;;;14.50;95.50;;;;;;4942503;28;20090;-85
2021/09/09 02:42:14;;;;;;;19.80;15.40;;;14.40;94.60;;;;;;4950333;28;20032;-85
2021/09/09 02:44:39;;;;;;;18.67;14.70;;;14.30;94.40;;;;;;4940666;28;20053;-81
2021/09/09 02:47:05;;;;;;;23.23;14.63;;;14.30;94.70;;;;;;4943078;28;20394;-81
2021/09/09 02:49:31;;;;;;;18.90;14.25;;;14.20;94.60;;;;;;4932582;28;20365;-80
2021/09/09 02:51:56;;;;;;;16.42;13.63;;;14.30;95.10;;;;;;4942691;28;20066;-80
2021/09/09 02:54:22;;;;;;;20.77;15.38;;;14.30;94.70;;;;;;4954703;28;20415;-80
2021/09/09 02:56:47;;;;;;;21.25;14.95;;;14.30;95.10;;;;;;4926483;29;20058;-79
2021/09/09 02:59:14;;;;;;;18.27;14.80;;;14.40;95.50;;;;;;4934927;28;20078;-79
2021/09/09 03:01:39;;;;;;;20.42;14.93;;;14.40;95.30;;;;;;4939082;28;20031;-80
2021/09/09 03:04:05;;;;;;;19.20;14.32;;;14.40;95.40;;;;;;4935502;28;20487;-81
2021/09/09 03:06:31;;;;;;;17.50;14.55;;;14.30;94.10;;;;;;4924895;29;20063;-81
2021/09/09 03:08:56;;;;;;;21.73;15.65;;;14.30;95.50;;;;;;4928609;28;20060;-80
2021/09/09 03:11:22;;;;;;;19.33;15.05;;;14.40;94.60;;;;;;4939763;28;20042;-79
2021/09/09 03:13:47;;;;;;;18.92;14.60;;;14.30;94.40;;;;;;4931499;28;20027;-80
2021/09/09 03:16:13;;;;;;;20.42;14.50;;;14.30;94.40;;;;;;4925617;28;20032;-79
2021/09/09 03:18:38;;;;;;;18.85;15.48;;;14.20;94.30;;;;;;4931689;29;20020;-80
2021/09/09 03:21:04;;;;;;;17.92;14.65;;;14.10;95.10;;;;;;4941979;28;20042;-81
2021/09/09 03:23:30;;;;;;;21.75;14.77;;;14.10;95.20;;;;;;4944567;28;20027;-80
2021/09/09 03:25:55;;;;;;;20.98;15.73;;;14.00;94.80;;;;;;4941938;28;20030;-80
2021/09/09 03:28:22;;;;;;;20.10;15.25;;;14.10;97.50;;;;;;4939253;28;20041;-80
2021/09/09 03:30:47;;;;;;;24.02;15.13;;;14.10;95.30;;;;;;4936854;28;20406;-82
2021/09/09 03:33:13;;;;;;;17.33;14.68;;;14.20;98.10;;;;;;4929947;28;20075;-80
2021/09/09 03:35:38;;;;;;;26.50;15.70;;;14.10;96.80;;;;;;4938476;28;20046;-80
2021/09/09 03:38:04;;;;;;;19.60;14.88;;;14.10;96.70;;;;;;4933787;28;20055;-81
2021/09/09 03:40:29;;;;;;;24.35;15.15;;;14.10;96.20;;;;;;4914106;28;20028;-79
2021/09/09 03:42:55;;;;;;;22.58;16.08;;;14.00;96.30;;;;;;4926627;28;20392;-82
2021/09/09 03:45:20;;;;;;;21.88;16.05;;;14.00;97.00;;;;;;4929742;28;20047;-81
2021/09/09 03:47:46;;;;;;;20.48;15.15;;;14.00;95.50;;;;;;4948511;28;20042;-81
2021/09/09 03:50:11;;;;;;;22.13;15.98;;;14.10;95.60;;;;;;4942380;28;20602;-81
2021/09/09 03:52:37;;;;;;;27.88;16.58;;;14.00;97.30;;;;;;4922959;28;20066;-80
2021/09/09 03:55:03;;;;;;;23.90;16.52;;;14.00;96.90;;;;;;4937108;28;20391;-80
2021/09/09 03:57:30;;;;;;;21.63;17.02;;;14.00;98.20;;;;;;4925099;28;20027;-80
2021/09/09 03:59:55;;;;;;;21.50;15.50;;;14.00;98.40;;;;;;4886329;28;20036;-80
2021/09/09 04:02:21;;;;;;;26.63;16.77;;;14.00;96.70;;;;;;4911932;29;20034;-81
2021/09/09 04:04:46;;;;;;;18.55;14.95;;;14.00;98.00;;;;;;4929848;28;20039;-80
2021/09/09 04:07:14;;;;;;;23.55;15.63;;;14.00;98.60;;;;;;4914688;29;20106;-81
2021/09/09 04:09:39;;;;;;;22.38;15.75;;;13.90;98.60;;;;;;4915576;29;20050;-80
2021/09/09 04:12:05;;;;;;;23.00;15.73;;;13.90;97.50;;;;;;4900262;29;20047;-80
2021/09/09 04:14:32;;;;;;;23.10;16.52;;;13.90;97.70;;;;;;4916308;29;20122;-80
2021/09/09 04:16:58;;;;;;;24.15;16.58;;;13.90;95.60;;;;;;4917497;28;20396;-80
2021/09/09 04:19:23;;;;;;;23.52;16.50;;;13.90;97.20;;;;;;4918202;29;20093;-80
2021/09/09 04:21:50;;;;;;;24.95;15.95;;;13.90;95.40;;;;;;4924816;28;20122;-80
2021/09/09 04:24:16;;;;;;;17.35;14.95;;;14.00;94.90;;;;;;4926750;28;20035;-82
2021/09/09 04:26:41;;;;;;;22.02;15.73;;;14.00;93.80;;;;;;4932618;29;20034;-80
2021/09/09 04:29:07;;;;;;;22.65;16.33;;;13.90;95.00;;;;;;4935470;28;20039;-79
2021/09/09 04:31:34;;;;;;;25.08;16.80;;;13.70;96.80;;;;;;4940360;28;20069;-80
2021/09/09 04:33:59;;;;;;;20.77;16.88;;;13.60;97.50;;;;;;4958376;28;20118;-80
2021/09/09 04:36:25;;;;;;;19.02;16.35;;;13.60;98.60;;;;;;4943894;28;20113;-80
2021/09/09 04:38:50;;;;;;;24.98;16.45;;;13.60;97.70;;;;;;4946851;28;20078;-80
2021/09/09 04:41:16;;;;;;;21.98;16.98;;;13.50;97.80;;;;;;4941587;28;20018;-80
2021/09/09 04:43:45;;;;;;;22.60;16.08;;;13.50;98.40;;;;;;4930570;28;20503;-80
2021/09/09 04:46:10;;;;;;;22.05;16.85;;;13.50;97.60;;;;;;4913458;28;20058;-81
2021/09/09 04:48:36;;;;;;;23.33;16.95;;;13.50;97.10;;;;;;4927252;28;20518;-79
2021/09/09 04:51:02;;;;;;;21.52;16.90;;;13.40;96.90;;;;;;4921738;28;20062;-79
2021/09/09 04:53:27;;;;;;;22.98;16.08;;;13.40;97.10;;;;;;4928377;28;20031;-80
2021/09/09 04:55:53;;;;;;;22.85;16.70;;;13.50;98.60;;;;;;4930388;28;20038;-80
2021/09/09 04:58:18;;;;;;;24.20;16.88;;;13.60;98.90;;;;;;4928567;28;20445;-79
2021/09/09 05:00:44;;;;;;;21.10;15.60;;;13.50;99.60;;;;;;4928013;28;20034;-79
2021/09/09 05:03:10;;;;;;;29.48;16.90;;;13.60;98.20;;;;;;4929434;28;20102;-80
2021/09/09 05:05:36;;;;;;;30.23;18.20;;;13.60;99.40;;;;;;4929846;28;20042;-80
2021/09/09 05:08:12;;;;;;;23.35;17.23;;;13.50;99.80;;;;;;4926039;29;20036;-81
2021/09/09 05:10:38;;;;;;;27.27;17.38;;;13.50;99.90;;;;;;4947235;28;20053;-80
2021/09/09 05:13:04;;;;;;;22.05;16.92;;;13.50;98.90;;;;;;4934706;28;20035;-82
2021/09/09 05:15:29;;;;;;;26.33;17.55;;;13.50;99.60;;;;;;4917910;28;20468;-83
2021/09/09 05:17:55;;;;;;;26.02;17.08;;;13.50;99.30;;;;;;4927718;28;20491;-82
2021/09/09 05:20:20;;;;;;;23.02;17.75;;;13.50;98.60;;;;;;4932177;28;20034;-81
2021/09/09 05:22:47;;;;;;;23.00;17.70;;;13.50;99.00;;;;;;4936283;28;20436;-83
2021/09/09 05:25:12;;;;;;;27.70;18.08;;;13.50;99.00;;;;;;4929785;28;20039;-81
2021/09/09 05:27:38;;;;;;;21.80;17.88;;;13.40;99.50;;;;;;4945329;28;20063;-81
2021/09/09 05:30:04;;;;;;;27.67;17.80;;;13.50;99.20;;;;;;4915243;29;20034;-83
2021/09/09 05:32:36;;;;;;;26.83;18.00;;;13.50;99.80;;;;;;4579228;28;9999700;-82
2021/09/09 05:35:02;;;;;;;27.00;18.65;;;13.50;99.40;;;;;;4923190;28;20109;-83
2021/09/09 05:37:27;;;;;;;24.80;16.98;;;13.50;98.80;;;;;;4936986;28;20118;-82
2021/09/09 05:39:53;;;;;;;24.60;18.50;;;13.50;99.80;;;;;;4931140;28;20086;-82
2021/09/09 05:42:19;;;;;;;24.90;18.83;;;13.50;99.50;;;;;;4934360;29;20106;-82
2021/09/09 05:44:44;;;;;;;31.35;19.92;;;13.60;99.90;;;;;;4933699;28;20043;-81
2021/09/09 05:47:10;;;;;;;25.58;18.98;;;13.70;99.90;;;;;;4957827;28;20111;-82
2021/09/09 05:49:50;;;;;;;26.77;18.55;;;13.70;99.90;;;;;;4937137;28;20506;-82
2021/09/09 05:52:15;;;;;;;25.40;19.83;;;13.70;99.70;;;;;;4950188;28;20038;-83
2021/09/09 05:54:41;;;;;;;26.27;20.13;;;13.80;99.80;;;;;;4927542;29;20027;-81
2021/09/09 05:57:06;;;;;;;25.30;19.55;;;13.80;99.60;;;;;;4938252;28;20030;-81
2021/09/09 05:59:32;;;;;;;27.92;18.27;;;13.90;99.90;;;;;;4910711;29;20035;-80
2021/09/09 06:01:58;;;;;;;28.92;19.23;;;14.00;99.90;;;;;;4928421;29;20042;-82
2021/09/09 06:04:24;;;;;;;24.55;18.65;;;14.10;99.90;;;;;;4949455;28;20058;-82
2021/09/09 06:06:49;;;;;;;30.80;18.85;;;14.10;99.90;;;;;;4950985;28;20507;-82
2021/09/09 06:09:16;;;;;;;26.63;18.70;;;14.20;99.60;;;;;;4941520;28;20090;-82
2021/09/09 06:11:41;;;;;;;24.52;18.10;;;14.30;99.50;;;;;;4943528;28;20031;-81
2021/09/09 06:14:33;;;;;;;25.70;17.63;;;14.40;99.90;;;;;;4942253;28;20108;-82
2021/09/09 06:16:59;;;;;;;25.90;17.77;;;14.60;99.90;;;;;;4936124;28;20038;-80
2021/09/09 06:19:25;;;;;;;24.10;17.70;;;14.70;99.90;;;;;;4942673;28;20030;-83
2021/09/09 06:21:51;;;;;;;25.45;17.70;;;14.80;99.90;;;;;;4945808;28;20031;-82
2021/09/09 06:24:19;;;;;;;26.80;18.80;;;14.90;99.90;;;;;;4931468;28;20381;-81
2021/09/09 06:26:44;;;;;;;23.05;18.42;;;15.00;99.90;;;;;;4934216;28;20047;-81
2021/09/09 06:29:10;;;;;;;24.38;18.45;;;15.20;99.90;;;;;;4927005;28;20057;-81
2021/09/09 06:31:35;;;;;;;25.95;17.95;;;15.30;99.90;;;;;;4918841;29;20126;-82
2021/09/09 06:34:12;;;;;;;22.85;16.70;;;15.40;99.90;;;;;;4932690;28;20110;-81
2021/09/09 06:36:37;;;;;;;22.83;17.15;;;15.60;99.90;;;;;;4939757;28;20515;-81
2021/09/09 06:39:03;;;;;;;24.77;17.48;;;15.60;99.90;;;;;;4945402;28;20034;-81
2021/09/09 06:41:29;;;;;;;21.23;16.40;;;15.80;99.90;;;;;;4923792;28;20033;-81
2021/09/09 06:43:54;;;;;;;21.17;16.65;;;15.90;99.90;;;;;;4925701;28;20113;-82
2021/09/09 06:46:20;;;;;;;20.15;14.90;;;16.00;99.90;;;;;;4941415;28;20063;-82
2021/09/09 06:48:45;;;;;;;21.33;14.63;;;16.20;99.90;;;;;;4932276;28;20035;-80
2021/09/09 06:51:11;;;;;;;22.73;16.35;;;16.30;99.90;;;;;;4955052;28;20023;-81
2021/09/09 06:53:37;;;;;;;19.40;15.10;;;16.50;99.90;;;;;;4918943;29;20044;-82
2021/09/09 06:56:02;;;;;;;18.35;14.60;;;16.60;99.90;;;;;;4931225;28;20119;-81
2021/09/09 06:58:28;;;;;;;19.50;14.60;;;16.80;99.90;;;;;;4956179;28;20023;-82
2021/09/09 07:00:53;;;;;;;22.60;15.45;;;17.00;99.90;;;;;;4952295;28;20042;-81
2021/09/09 07:03:19;;;;;;;23.80;14.30;;;17.20;99.50;;;;;;4927359;28;20078;-84
2021/09/09 07:05:44;;;;;;;23.70;13.85;;;17.40;99.50;;;;;;4916093;28;20046;-83
2021/09/09 07:08:10;;;;;;;22.92;14.38;;;17.60;99.60;;;;;;4944326;28;20061;-81
2021/09/09 07:10:36;;;;;;;17.63;13.60;;;17.70;96.70;;;;;;4935476;29;20039;-81
2021/09/09 07:13:01;;;;;;;18.10;13.02;;;17.80;98.40;;;;;;4924184;28;20034;-81
2021/09/09 07:15:27;;;;;;;19.65;13.00;;;18.00;96.70;;;;;;4942027;28;20038;-81
2021/09/09 07:17:53;;;;;;;15.75;11.02;;;18.20;96.30;;;;;;4917835;29;20046;-81
2021/09/09 07:20:20;;;;;;;14.00;9.45;;;18.30;95.20;;;;;;4917830;28;20577;-81
2021/09/09 07:22:45;;;;;;;12.02;10.05;;;18.40;94.00;;;;;;4926684;28;20032;-81
2021/09/09 07:25:13;;;;;;;18.15;11.93;;;18.60;95.50;;;;;;4931032;28;20108;-82
2021/09/09 07:27:38;;;;;;;12.45;8.48;;;18.80;94.20;;;;;;4921887;28;20036;-82
2021/09/09 07:30:05;;;;;;;11.65;8.18;;;18.90;94.20;;;;;;4927163;28;20487;-82
2021/09/09 07:32:30;;;;;;;12.30;10.02;;;19.00;93.50;;;;;;4934169;28;20032;-81
2021/09/09 07:34:56;;;;;;;13.82;9.75;;;19.10;93.90;;;;;;4935676;28;20106;-82
2021/09/09 07:37:33;;;;;;;12.02;9.27;;;19.30;94.10;;;;;;4930424;28;20045;-81
2021/09/09 07:39:58;;;;;;;15.60;9.88;;;19.50;94.20;;;;;;4941095;28;20130;-82
2021/09/09 07:42:24;;;;;;;12.93;9.43;;;19.60;93.70;;;;;;4913549;28;20068;-83
2021/09/09 07:44:53;;;;;;;11.73;8.55;;;20.00;94.40;;;;;;4936557;28;20035;-83
2021/09/09 07:47:19;;;;;;;16.33;10.05;;;20.20;93.20;;;;;;4933007;28;20139;-82
2021/09/09 07:49:44;;;;;;;15.65;8.98;;;20.40;93.60;;;;;;4934645;28;20113;-82
2021/09/09 07:52:10;;;;;;;13.48;8.40;;;20.50;92.90;;;;;;4952882;28;20534;-81
2021/09/09 07:54:35;;;;;;;18.63;9.68;;;20.40;92.50;;;;;;4928288;29;20037;-82
2021/09/09 07:57:01;;;;;;;10.27;8.43;;;20.80;93.00;;;;;;4948536;28;20039;-82
2021/09/09 07:59:27;;;;;;;11.63;8.25;;;21.00;92.60;;;;;;4938878;28;20043;-83
2021/09/09 08:01:55;;;;;;;12.63;8.27;;;21.30;92.40;;;;;;4928108;28;20031;-83
2021/09/09 08:04:25;;;;;;;13.18;8.23;;;21.80;91.40;;;;;;4923318;29;20035;-82
2021/09/09 08:09:55;;;;;;;10.43;7.68;;;22.00;90.80;;;;;;4908330;28;20042;-82
2021/09/09 08:12:23;;;;;;;12.68;7.95;;;22.10;90.80;;;;;;4895543;28;20031;-82
2021/09/09 08:14:52;;;;;;;13.40;7.97;;;22.20;90.70;;;;;;4910623;28;20070;-84
2021/09/09 08:17:18;;;;;;;11.40;7.68;;;22.60;89.50;;;;;;4933265;28;20056;-82
2021/09/09 08:19:43;;;;;;;11.00;7.72;;;22.70;89.70;;;;;;4928579;28;20082;-82
2021/09/09 08:22:09;;;;;;;11.45;8.25;;;22.70;90.20;;;;;;4930370;28;20067;-82
2021/09/09 08:24:35;;;;;;;11.10;7.70;;;22.70;90.10;;;;;;4925886;28;20047;-83
2021/09/09 08:27:00;;;;;;;11.25;7.95;;;22.80;89.40;;;;;;4909824;28;20398;-83
2021/09/09 08:29:28;;;;;;;9.43;7.32;;;22.80;90.00;;;;;;4917871;28;20043;-82
2021/09/09 08:31:57;;;;;;;9.18;7.20;;;23.10;90.10;;;;;;4933025;28;20031;-83
2021/09/09 08:34:23;;;;;;;9.40;6.95;;;23.70;88.10;;;;;;4924034;28;20038;-82
2021/09/09 08:36:51;;;;;;;10.70;7.55;;;23.90;86.90;;;;;;4913561;28;20038;-82
2021/09/09 08:39:19;;;;;;;14.40;7.50;;;24.10;86.30;;;;;;4925482;29;20396;-82
2021/09/09 08:41:46;;;;;;;10.80;6.95;;;24.20;84.70;;;;;;4922616;28;20039;-82
2021/09/09 08:44:12;;;;;;;11.43;7.47;;;24.30;85.70;;;;;;4916494;28;20122;-83
2021/09/09 08:46:37;;;;;;;10.43;6.95;;;24.30;85.70;;;;;;4933856;28;20135;-82
2021/09/09 08:49:03;;;;;;;9.20;7.03;;;24.50;85.70;;;;;;4914213;29;20450;-82
2021/09/09 08:51:31;;;;;;;11.98;6.70;;;24.50;85.00;;;;;;4884264;29;20043;-81
2021/09/09 08:53:56;;;;;;;8.80;6.43;;;25.00;83.20;;;;;;4919889;29;20484;-82
2021/09/09 08:56:28;;;;;;;10.02;6.95;;;25.30;81.70;;;;;;4887637;29;20044;-82
2021/09/09 08:58:55;;;;;;;9.45;6.22;;;25.30;80.80;;;;;;4933352;28;20035;-82
2021/09/09 09:01:20;;;;;;;11.13;6.90;;;25.40;80.40;;;;;;4926709;28;20193;-83
2021/09/09 09:03:55;;;;;;;8.32;6.65;;;25.50;80.80;;;;;;4907846;28;20069;-83
2021/09/09 09:06:24;;;;;;;10.50;6.70;;;25.60;80.10;;;;;;4921994;28;20038;-82
2021/09/09 09:08:53;;;;;;;8.57;6.40;;;25.90;79.30;;;;;;4932955;28;20038;-82
2021/09/09 09:11:23;;;;;;;7.13;6.35;;;26.10;79.70;;;;;;4940437;28;20026;-82
2021/09/09 09:13:51;;;;;;;9.80;6.55;;;26.20;78.20;;;;;;4938630;28;20093;-82
2021/09/09 09:16:23;;;;;;;8.65;6.60;;;26.50;77.20;;;;;;4925800;28;20032;-81
2021/09/09 09:18:49;;;;;;;6.50;5.68;;;26.80;76.40;;;;;;4939795;28;20047;-81
2021/09/09 09:21:16;;;;;;;7.32;6.22;;;26.70;77.90;;;;;;4945401;28;20506;-81
2021/09/09 09:23:49;;;;;;;10.57;6.25;;;26.50;78.30;;;;;;4935308;28;20714;-82
2021/09/09 09:26:16;;;;;;;9.13;6.40;;;26.90;76.10;;;;;;4918392;29;21500;-82
2021/09/09 09:28:44;;;;;;;8.80;6.70;;;27.10;75.30;;;;;;4918518;29;20594;-82
2021/09/09 09:31:14;;;;;;;12.38;6.47;;;27.30;75.10;;;;;;4934117;29;20032;-82
2021/09/09 09:33:47;;;;;;;8.07;6.10;;;27.80;73.20;;;;;;4903014;29;20047;-83
2021/09/09 09:36:22;;;;;;;8.05;6.40;;;27.50;73.70;;;;;;4915166;29;20028;-82
2021/09/09 09:39:04;;;;;;;9.98;6.60;;;27.90;72.30;;;;;;4938213;29;20026;-83
2021/09/09 09:41:32;;;;;;;10.38;5.97;;;27.70;72.90;;;;;;4954369;28;20030;-82
2021/09/09 09:44:03;;;;;;;7.70;5.85;;;27.70;73.50;;;;;;4941213;28;20043;-83
2021/09/09 09:46:33;;;;;;;6.72;6.07;;;27.60;74.90;;;;;;4922785;28;20036;-84
2021/09/09 09:49:23;;;;;;;8.75;7.43;;;27.60;75.60;;;;;;4933452;28;20502;-82
2021/09/09 09:51:49;;;;;;;8.30;6.40;;;27.30;77.50;;;;;;4932006;28;20055;-84
2021/09/09 09:54:22;;;;;;;8.88;7.80;;;27.20;77.60;;;;;;4255247;28;10000410;-84
2021/09/09 09:56:49;;;;;;;9.88;6.45;;;27.40;76.40;;;;;;4937993;28;20037;-83
2021/09/09 09:59:14;;;;;;;8.65;6.65;;;28.00;74.80;;;;;;4934584;28;20061;-82
2021/09/09 10:01:41;;;;;;;11.23;6.70;;;28.20;73.70;;;;;;4913919;28;20028;-82
2021/09/09 10:04:14;;;;;;;7.05;6.20;;;28.40;73.60;;;;;;4950581;28;20035;-82
2021/09/09 10:06:41;;;;;;;10.13;6.55;;;29.00;72.10;;;;;;4932064;28;20046;-84
2021/09/09 10:09:06;;;;;;;7.35;6.43;;;29.30;71.00;;;;;;4941998;28;20027;-82
2021/09/09 10:11:32;;;;;;;9.85;6.75;;;29.50;69.90;;;;;;4906592;29;20078;-82
2021/09/09 10:13:59;;;;;;;8.55;6.32;;;29.30;71.60;;;;;;4935030;28;20063;-84
2021/09/09 10:16:29;;;;;;;9.10;6.43;;;29.00;71.80;;;;;;4925019;28;20023;-84
2021/09/09 10:18:55;;;;;;;8.25;6.30;;;29.10;71.40;;;;;;4933027;28;20391;-82
2021/09/09 10:21:40;;;;;;;8.93;6.93;;;28.90;72.20;;;;;;4940973;28;20038;-82
2021/09/09 10:24:10;;;;;;;12.90;6.90;;;29.30;72.70;;;;;;4935849;28;20039;-84
2021/09/09 10:26:36;;;;;;;10.18;7.63;;;29.50;71.10;;;;;;4938826;28;20046;-83
2021/09/09 10:29:02;;;;;;;10.02;6.47;;;29.90;69.90;;;;;;4945804;28;20043;-82
2021/09/09 10:31:40;;;;;;;7.90;5.95;;;29.90;69.70;;;;;;4912624;28;20035;-83
2021/09/09 10:34:20;;;;;;;6.32;5.65;;;29.80;70.10;;;;;;4936687;28;20035;-82
2021/09/09 10:36:46;;;;;;;6.63;6.03;;;29.60;71.20;;;;;;4904938;29;20037;-82
2021/09/09 10:39:33;;;;;;;8.32;6.35;;;30.40;68.70;;;;;;4926881;28;20459;-83
2021/09/09 10:42:34;;;;;;;7.97;6.55;;;30.90;66.50;;;;;;4934115;28;20055;-83
2021/09/09 10:44:59;;;;;;;12.43;7.45;;;30.80;66.70;;;;;;4948747;28;20178;-85
2021/09/09 10:47:25;;;;;;;7.53;6.15;;;31.10;64.50;;;;;;4927235;28;20551;-84
2021/09/09 10:50:14;;;;;;;6.22;5.55;;;31.30;64.40;;;;;;4948241;28;20511;-84
2021/09/09 10:53:04;;;;;;;11.55;6.95;;;30.80;67.40;;;;;;4948973;28;20509;-84
2021/09/09 10:55:37;;;;;;;10.18;6.25;;;31.30;63.90;;;;;;4935589;28;20031;-85
2021/09/09 10:58:13;;;;;;;8.52;7.18;;;32.10;61.60;;;;;;4956385;28;20085;-84
2021/09/09 11:01:09;;;;;;;8.65;6.95;;;31.60;63.20;;;;;;4956214;28;20122;-85
2021/09/09 11:03:45;;;;;;;8.20;5.85;;;31.30;64.00;;;;;;4934373;28;20130;-85
2021/09/09 11:06:22;;;;;;;10.95;6.30;;;31.40;64.70;;;;;;4945811;28;20031;-86
2021/09/09 11:08:51;;;;;;;9.95;7.10;;;31.40;64.50;;;;;;4928700;28;21642;-86
2021/09/09 11:11:23;;;;;;;10.68;6.90;;;31.60;63.50;;;;;;4929724;28;20042;-86
2021/09/09 11:13:59;;;;;;;8.57;6.55;;;31.40;65.40;;;;;;4912962;28;20039;-86
2021/09/09 11:16:40;;;;;;;7.03;6.30;;;31.10;67.50;;;;;;4903689;29;20531;-87
2021/09/09 11:19:11;;;;;;;6.63;5.85;;;30.90;67.40;;;;;;4921550;28;20024;-88
2021/09/09 11:21:38;;;;;;;11.18;5.90;;;31.70;65.30;;;;;;4903206;29;20043;-88
2021/09/09 11:24:15;;;;;;;10.32;6.43;;;32.00;64.70;;;;;;4918417;29;20047;-88
2021/09/09 11:26:58;;;;;;;8.32;6.13;;;32.30;62.80;;;;;;4914745;29;20039;-89
2021/09/09 11:30:35;;;;;;;;;;;;;;;;;;;;;
2021/09/09 11:44:05;;;;;;;10.63;6.80;;;32.60;62.40;;;;;;4923857;28;20106;-89
2021/09/09 11:46:39;;;;;;;7.18;6.43;;;32.80;61.50;;;;;;4962863;28;20041;-89
2021/09/09 11:49:06;;;;;;;6.43;5.72;;;32.50;61.50;;;;;;4948009;28;20082;-88
2021/09/09 11:51:42;;;;;;;7.40;6.45;;;32.10;63.30;;;;;;4925828;28;20506;-88
2021/09/09 11:54:19;;;;;;;9.10;6.57;;;32.60;61.50;;;;;;4929064;28;20035;-88
2021/09/09 11:56:46;;;;;;;6.90;6.00;;;33.20;60.10;;;;;;4933529;28;20050;-88
2021/09/09 11:59:18;;;;;;;8.07;5.80;;;33.20;60.10;;;;;;4938903;28;20034;-87
2021/09/09 12:01:49;;;;;;;10.50;6.70;;;33.10;61.00;;;;;;4934980;28;20045;-88
2021/09/09 12:04:20;;;;;;;7.78;6.25;;;32.90;63.00;;;;;;4937457;28;20031;-86
2021/09/09 12:06:46;;;;;;;9.07;6.00;;;33.40;58.60;;;;;;4921569;28;20031;-87
2021/09/09 12:09:22;;;;;;;11.00;7.70;;;34.00;57.40;;;;;;4956832;28;20042;-87
2021/09/09 12:12:01;;;;;;;7.93;6.38;;;34.20;57.50;;;;;;4938057;28;20034;-86
2021/09/09 12:14:27;;;;;;;9.18;6.93;;;33.80;57.90;;;;;;4932776;28;20039;-86
2021/09/09 12:17:11;;;;;;;9.02;6.35;;;34.00;57.40;;;;;;4936860;28;20468;-87
2021/09/09 12:19:57;;;;;;;8.93;5.55;;;33.80;57.80;;;;;;4940689;28;20042;-87
2021/09/09 12:22:43;;;;;;;8.40;7.60;;;33.70;58.70;;;;;;4970809;28;20406;-86
2021/09/09 12:25:27;;;;;;;9.98;6.05;;;33.60;58.00;;;;;;4956562;28;20063;-87
2021/09/09 12:28:15;;;;;;;12.35;6.47;;;33.70;58.70;;;;;;4957614;28;20082;-87
2021/09/09 12:30:53;;;;;;;7.43;6.28;;;32.90;62.10;;;;;;4932110;28;20427;-86
2021/09/09 12:33:26;;;;;;;9.18;7.28;;;33.10;62.40;;;;;;4953848;28;20035;-86
2021/09/09 12:36:14;;;;;;;11.60;7.70;;;33.20;62.00;;;;;;4940662;28;20039;-85
2021/09/09 12:38:44;;;;;;;8.52;6.78;;;33.30;61.60;;;;;;4952040;28;20122;-88
2021/09/09 12:41:18;;;;;;;10.05;8.27;;;33.50;60.90;;;;;;4943452;28;20510;-85
2021/09/09 12:44:02;;;;;;;9.65;7.05;;;33.50;59.60;;;;;;4947742;28;20414;-85
2021/09/09 12:46:29;;;;;;;13.25;8.93;;;33.80;59.10;;;;;;4927137;28;20059;-87
2021/09/09 12:49:08;;;;;;;7.85;6.95;;;33.50;62.90;;;;;;4924886;28;20444;-85
2021/09/09 12:51:35;;;;;;;18.13;11.50;;;33.40;61.60;;;;;;4928029;28;20035;-85
2021/09/09 12:54:01;;;;;;;15.50;9.27;;;33.40;63.20;;;;;;4941052;28;20055;-85